sensor_id;sensor_type;location;lat;lon;timestamp;temperature;humidity
53073;DHT22;38955;48.916;2.336;2023-09-08T00:01:01;25.20;92.30
53073;DHT22;38955;48.916;2.336;2023-09-08T00:03:05;25.10;92.30
53073;DHT22;38955;48.916;2.336;2023-09-08T00:05:07;25.10;92.10
53073;DHT22;38955;48.916;2.336;2023-09-08T00:07:10;25.10;92.00
53073;DHT22;38955;48.916;2.336;2023-09-08T00:09:12;25.10;92.00
53073;DHT22;38955;48.916;2.336;2023-09-08T00:11:14;25.20;91.90
53073;DHT22;38955;48.916;2.336;2023-09-08T00:13:16;25.10;91.80
53073;DHT22;38955;48.916;2.336;2023-09-08T00:15:21;25.10;91.90
53073;DHT22;38955;48.916;2.336;2023-09-08T00:17:23;25.10;91.80
53073;DHT22;38955;48.916;2.336;2023-09-08T00:19:26;25.10;92.00
53073;DHT22;38955;48.916;2.336;2023-09-08T00:21:28;25.10;91.80
53073;DHT22;38955;48.916;2.336;2023-09-08T00:23:30;25.10;91.80
53073;DHT22;38955;48.916;2.336;2023-09-08T00:25:33;25.00;91.90
53073;DHT22;38955;48.916;2.336;2023-09-08T00:27:36;25.00;91.90
53073;DHT22;38955;48.916;2.336;2023-09-08T00:29:38;25.00;92.00
53073;DHT22;38955;48.916;2.336;2023-09-08T00:31:41;25.00;91.90
53073;DHT22;38955;48.916;2.336;2023-09-08T00:33:43;25.00;92.20
53073;DHT22;38955;48.916;2.336;2023-09-08T00:35:49;24.90;92.30
53073;DHT22;38955;48.916;2.336;2023-09-08T00:37:52;24.90;92.30
53073;DHT22;38955;48.916;2.336;2023-09-08T00:39:54;24.80;92.40
53073;DHT22;38955;48.916;2.336;2023-09-08T00:41:58;24.80;92.40
53073;DHT22;38955;48.916;2.336;2023-09-08T00:44:00;24.80;92.50
53073;DHT22;38955;48.916;2.336;2023-09-08T00:46:02;24.80;92.40
53073;DHT22;38955;48.916;2.336;2023-09-08T00:48:05;24.70;92.40
53073;DHT22;38955;48.916;2.336;2023-09-08T00:50:08;24.70;92.30
53073;DHT22;38955;48.916;2.336;2023-09-08T00:52:12;24.70;92.50
53073;DHT22;38955;48.916;2.336;2023-09-08T00:54:14;24.70;92.60
53073;DHT22;38955;48.916;2.336;2023-09-08T00:56:17;24.70;92.60
53073;DHT22;38955;48.916;2.336;2023-09-08T00:58:19;24.60;92.70
53073;DHT22;38955;48.916;2.336;2023-09-08T01:00:22;24.60;92.80
53073;DHT22;38955;48.916;2.336;2023-09-08T01:02:24;24.60;92.70
53073;DHT22;38955;48.916;2.336;2023-09-08T01:04:26;24.60;92.80
53073;DHT22;38955;48.916;2.336;2023-09-08T01:06:29;24.50;93.00
53073;DHT22;38955;48.916;2.336;2023-09-08T01:08:34;24.50;92.90
53073;DHT22;38955;48.916;2.336;2023-09-08T01:10:37;24.50;93.00
53073;DHT22;38955;48.916;2.336;2023-09-08T01:12:41;24.40;93.10
53073;DHT22;38955;48.916;2.336;2023-09-08T01:14:43;24.40;93.10
53073;DHT22;38955;48.916;2.336;2023-09-08T01:16:45;24.40;93.10
53073;DHT22;38955;48.916;2.336;2023-09-08T01:18:48;24.40;93.10
53073;DHT22;38955;48.916;2.336;2023-09-08T01:21:06;24.50;93.10
53073;DHT22;38955;48.916;2.336;2023-09-08T01:23:19;24.50;93.40
53073;DHT22;38955;48.916;2.336;2023-09-08T01:25:25;24.40;93.00
53073;DHT22;38955;48.916;2.336;2023-09-08T01:27:29;24.50;93.20
53073;DHT22;38955;48.916;2.336;2023-09-08T01:29:34;24.40;93.30
53073;DHT22;38955;48.916;2.336;2023-09-08T01:31:37;24.40;93.30
53073;DHT22;38955;48.916;2.336;2023-09-08T01:33:40;24.40;93.30
53073;DHT22;38955;48.916;2.336;2023-09-08T01:35:43;24.40;93.10
53073;DHT22;38955;48.916;2.336;2023-09-08T01:37:47;24.50;93.20
53073;DHT22;38955;48.916;2.336;2023-09-08T01:39:49;24.40;93.30
53073;DHT22;38955;48.916;2.336;2023-09-08T01:41:53;24.40;93.40
53073;DHT22;38955;48.916;2.336;2023-09-08T01:43:58;24.30;93.30
53073;DHT22;38955;48.916;2.336;2023-09-08T01:46:00;24.30;93.40
53073;DHT22;38955;48.916;2.336;2023-09-08T01:48:03;24.30;93.30
53073;DHT22;38955;48.916;2.336;2023-09-08T01:50:06;24.30;93.40
53073;DHT22;38955;48.916;2.336;2023-09-08T01:52:09;24.30;93.40
53073;DHT22;38955;48.916;2.336;2023-09-08T01:54:11;24.30;93.50
53073;DHT22;38955;48.916;2.336;2023-09-08T01:56:13;24.30;93.40
53073;DHT22;38955;48.916;2.336;2023-09-08T01:58:16;24.30;93.60
53073;DHT22;38955;48.916;2.336;2023-09-08T02:00:18;24.20;93.60
53073;DHT22;38955;48.916;2.336;2023-09-08T02:02:21;24.20;93.70
53073;DHT22;38955;48.916;2.336;2023-09-08T02:04:23;24.20;93.80
53073;DHT22;38955;48.916;2.336;2023-09-08T02:06:25;24.20;93.80
53073;DHT22;38955;48.916;2.336;2023-09-08T02:08:27;24.20;93.80
53073;DHT22;38955;48.916;2.336;2023-09-08T02:10:29;24.20;93.90
53073;DHT22;38955;48.916;2.336;2023-09-08T02:12:31;24.10;93.90
53073;DHT22;38955;48.916;2.336;2023-09-08T02:14:35;24.10;94.00
53073;DHT22;38955;48.916;2.336;2023-09-08T02:16:37;24.10;94.10
53073;DHT22;38955;48.916;2.336;2023-09-08T02:18:39;24.00;94.20
53073;DHT22;38955;48.916;2.336;2023-09-08T02:20:41;24.00;94.10
53073;DHT22;38955;48.916;2.336;2023-09-08T02:22:43;24.00;94.20
53073;DHT22;38955;48.916;2.336;2023-09-08T02:24:45;24.00;94.30
53073;DHT22;38955;48.916;2.336;2023-09-08T02:26:51;23.90;94.30
53073;DHT22;38955;48.916;2.336;2023-09-08T02:28:56;23.90;94.40
53073;DHT22;38955;48.916;2.336;2023-09-08T02:31:00;23.90;94.40
53073;DHT22;38955;48.916;2.336;2023-09-08T02:33:02;23.90;94.30
53073;DHT22;38955;48.916;2.336;2023-09-08T02:35:05;23.90;94.50
53073;DHT22;38955;48.916;2.336;2023-09-08T02:37:08;23.80;94.40
53073;DHT22;38955;48.916;2.336;2023-09-08T02:39:10;23.80;94.50
53073;DHT22;38955;48.916;2.336;2023-09-08T02:41:12;23.80;94.50
53073;DHT22;38955;48.916;2.336;2023-09-08T02:43:14;23.80;94.50
53073;DHT22;38955;48.916;2.336;2023-09-08T02:45:16;23.70;94.60
53073;DHT22;38955;48.916;2.336;2023-09-08T02:47:20;23.70;94.70
53073;DHT22;38955;48.916;2.336;2023-09-08T02:49:22;23.70;94.70
53073;DHT22;38955;48.916;2.336;2023-09-08T02:51:25;23.70;94.60
53073;DHT22;38955;48.916;2.336;2023-09-08T02:53:27;23.70;94.60
53073;DHT22;38955;48.916;2.336;2023-09-08T02:55:30;23.70;94.70
53073;DHT22;38955;48.916;2.336;2023-09-08T02:57:33;23.70;94.70
53073;DHT22;38955;48.916;2.336;2023-09-08T02:59:35;23.60;95.10
53073;DHT22;38955;48.916;2.336;2023-09-08T03:01:37;23.60;94.90
53073;DHT22;38955;48.916;2.336;2023-09-08T03:03:42;23.50;95.00
53073;DHT22;38955;48.916;2.336;2023-09-08T03:05:47;23.50;95.10
53073;DHT22;38955;48.916;2.336;2023-09-08T03:07:49;23.50;95.00
53073;DHT22;38955;48.916;2.336;2023-09-08T03:09:51;23.50;95.10
53073;DHT22;38955;48.916;2.336;2023-09-08T03:11:53;23.40;95.30
53073;DHT22;38955;48.916;2.336;2023-09-08T03:13:55;23.40;95.60
53073;DHT22;38955;48.916;2.336;2023-09-08T03:16:02;23.50;95.10
53073;DHT22;38955;48.916;2.336;2023-09-08T03:18:05;23.50;95.20
53073;DHT22;38955;48.916;2.336;2023-09-08T03:20:09;23.40;95.30
53073;DHT22;38955;48.916;2.336;2023-09-08T03:22:12;23.40;95.30
53073;DHT22;38955;48.916;2.336;2023-09-08T03:24:14;23.30;95.70
53073;DHT22;38955;48.916;2.336;2023-09-08T03:26:16;23.20;95.80
53073;DHT22;38955;48.916;2.336;2023-09-08T03:28:19;23.20;95.80
53073;DHT22;38955;48.916;2.336;2023-09-08T03:30:21;23.20;95.80
53073;DHT22;38955;48.916;2.336;2023-09-08T03:32:23;23.20;95.80
53073;DHT22;38955;48.916;2.336;2023-09-08T03:34:27;23.20;95.70
53073;DHT22;38955;48.916;2.336;2023-09-08T03:36:31;23.20;95.70
53073;DHT22;38955;48.916;2.336;2023-09-08T03:38:37;23.30;95.80
53073;DHT22;38955;48.916;2.336;2023-09-08T03:40:40;23.20;95.90
53073;DHT22;38955;48.916;2.336;2023-09-08T03:42:42;23.20;95.90
53073;DHT22;38955;48.916;2.336;2023-09-08T03:44:45;23.20;95.80
53073;DHT22;38955;48.916;2.336;2023-09-08T03:46:47;23.20;96.00
53073;DHT22;38955;48.916;2.336;2023-09-08T03:48:49;23.10;96.00
53073;DHT22;38955;48.916;2.336;2023-09-08T03:50:51;23.10;96.20
53073;DHT22;38955;48.916;2.336;2023-09-08T03:52:55;23.10;96.10
53073;DHT22;38955;48.916;2.336;2023-09-08T03:54:57;23.20;96.10
53073;DHT22;38955;48.916;2.336;2023-09-08T03:57:00;23.10;96.20
53073;DHT22;38955;48.916;2.336;2023-09-08T03:59:02;23.10;96.20
53073;DHT22;38955;48.916;2.336;2023-09-08T04:01:04;23.10;96.20
53073;DHT22;38955;48.916;2.336;2023-09-08T04:03:06;23.10;96.20
53073;DHT22;38955;48.916;2.336;2023-09-08T04:05:09;23.00;96.30
53073;DHT22;38955;48.916;2.336;2023-09-08T04:07:12;23.00;96.40
53073;DHT22;38955;48.916;2.336;2023-09-08T04:09:16;23.00;96.40
53073;DHT22;38955;48.916;2.336;2023-09-08T04:11:18;23.00;96.40
53073;DHT22;38955;48.916;2.336;2023-09-08T04:13:20;23.10;96.40
53073;DHT22;38955;48.916;2.336;2023-09-08T04:15:25;23.00;96.60
53073;DHT22;38955;48.916;2.336;2023-09-08T04:17:27;23.00;96.50
53073;DHT22;38955;48.916;2.336;2023-09-08T04:19:29;23.10;96.40
53073;DHT22;38955;48.916;2.336;2023-09-08T04:21:34;23.10;96.50
53073;DHT22;38955;48.916;2.336;2023-09-08T04:23:37;23.10;96.40
53073;DHT22;38955;48.916;2.336;2023-09-08T04:25:40;23.10;96.30
53073;DHT22;38955;48.916;2.336;2023-09-08T04:27:44;23.10;96.20
53073;DHT22;38955;48.916;2.336;2023-09-08T04:29:46;23.20;96.20
53073;DHT22;38955;48.916;2.336;2023-09-08T04:31:48;23.20;96.30
53073;DHT22;38955;48.916;2.336;2023-09-08T04:33:50;23.20;96.10
53073;DHT22;38955;48.916;2.336;2023-09-08T04:35:52;23.20;96.00
53073;DHT22;38955;48.916;2.336;2023-09-08T04:37:55;23.30;96.10
53073;DHT22;38955;48.916;2.336;2023-09-08T04:39:57;23.20;96.20
53073;DHT22;38955;48.916;2.336;2023-09-08T04:42:00;23.20;96.20
53073;DHT22;38955;48.916;2.336;2023-09-08T04:44:03;23.20;96.10
53073;DHT22;38955;48.916;2.336;2023-09-08T04:46:05;23.20;96.10
53073;DHT22;38955;48.916;2.336;2023-09-08T04:48:07;23.20;96.10
53073;DHT22;38955;48.916;2.336;2023-09-08T04:50:09;23.20;96.20
53073;DHT22;38955;48.916;2.336;2023-09-08T04:52:12;23.10;96.20
53073;DHT22;38955;48.916;2.336;2023-09-08T04:54:14;23.10;96.20
53073;DHT22;38955;48.916;2.336;2023-09-08T04:56:16;23.10;96.10
53073;DHT22;38955;48.916;2.336;2023-09-08T04:58:20;23.10;96.20
53073;DHT22;38955;48.916;2.336;2023-09-08T05:00:22;23.10;96.10
53073;DHT22;38955;48.916;2.336;2023-09-08T05:02:24;23.00;96.20
53073;DHT22;38955;48.916;2.336;2023-09-08T05:04:31;23.10;96.20
53073;DHT22;38955;48.916;2.336;2023-09-08T05:06:33;23.00;96.20
53073;DHT22;38955;48.916;2.336;2023-09-08T05:08:35;23.00;96.40
53073;DHT22;38955;48.916;2.336;2023-09-08T05:10:38;23.00;96.20
53073;DHT22;38955;48.916;2.336;2023-09-08T05:12:40;23.00;96.20
53073;DHT22;38955;48.916;2.336;2023-09-08T05:14:44;23.00;96.30
53073;DHT22;38955;48.916;2.336;2023-09-08T05:16:46;22.90;96.30
53073;DHT22;38955;48.916;2.336;2023-09-08T05:18:51;23.00;96.30
53073;DHT22;38955;48.916;2.336;2023-09-08T05:20:53;22.90;96.30
53073;DHT22;38955;48.916;2.336;2023-09-08T05:22:56;22.90;96.30
53073;DHT22;38955;48.916;2.336;2023-09-08T05:24:58;23.00;96.30
53073;DHT22;38955;48.916;2.336;2023-09-08T05:27:00;22.90;96.20
53073;DHT22;38955;48.916;2.336;2023-09-08T05:29:02;22.90;96.40
53073;DHT22;38955;48.916;2.336;2023-09-08T05:31:06;22.80;96.50
53073;DHT22;38955;48.916;2.336;2023-09-08T05:33:08;22.90;96.70
53073;DHT22;38955;48.916;2.336;2023-09-08T05:35:10;22.90;96.40
53073;DHT22;38955;48.916;2.336;2023-09-08T05:37:12;22.80;96.50
53073;DHT22;38955;48.916;2.336;2023-09-08T05:39:17;22.90;96.60
53073;DHT22;38955;48.916;2.336;2023-09-08T05:41:21;22.90;96.60
53073;DHT22;38955;48.916;2.336;2023-09-08T05:43:26;22.90;96.50
53073;DHT22;38955;48.916;2.336;2023-09-08T05:45:28;22.80;96.50
53073;DHT22;38955;48.916;2.336;2023-09-08T05:47:32;22.80;96.40
53073;DHT22;38955;48.916;2.336;2023-09-08T05:49:34;22.90;96.40
53073;DHT22;38955;48.916;2.336;2023-09-08T05:51:38;22.80;96.60
53073;DHT22;38955;48.916;2.336;2023-09-08T05:53:40;22.80;96.60
53073;DHT22;38955;48.916;2.336;2023-09-08T05:55:46;22.90;96.70
53073;DHT22;38955;48.916;2.336;2023-09-08T05:57:48;22.80;96.70
53073;DHT22;38955;48.916;2.336;2023-09-08T05:59:50;22.90;96.50
53073;DHT22;38955;48.916;2.336;2023-09-08T06:01:52;22.90;96.40
53073;DHT22;38955;48.916;2.336;2023-09-08T06:03:57;22.90;96.30
53073;DHT22;38955;48.916;2.336;2023-09-08T06:05:59;22.90;96.20
53073;DHT22;38955;48.916;2.336;2023-09-08T06:08:01;22.90;96.20
53073;DHT22;38955;48.916;2.336;2023-09-08T06:10:09;23.00;96.10
53073;DHT22;38955;48.916;2.336;2023-09-08T06:12:11;23.10;96.20
53073;DHT22;38955;48.916;2.336;2023-09-08T06:14:14;23.10;96.20
53073;DHT22;38955;48.916;2.336;2023-09-08T06:16:16;23.10;96.10
53073;DHT22;38955;48.916;2.336;2023-09-08T06:18:18;23.10;96.00
53073;DHT22;38955;48.916;2.336;2023-09-08T06:20:22;23.10;96.00
53073;DHT22;38955;48.916;2.336;2023-09-08T06:22:26;23.10;95.90
53073;DHT22;38955;48.916;2.336;2023-09-08T06:24:29;23.20;96.30
53073;DHT22;38955;48.916;2.336;2023-09-08T06:26:31;23.20;96.20
53073;DHT22;38955;48.916;2.336;2023-09-08T06:28:33;23.20;95.90
53073;DHT22;38955;48.916;2.336;2023-09-08T06:30:36;23.20;95.90
53073;DHT22;38955;48.916;2.336;2023-09-08T06:32:38;23.30;95.80
53073;DHT22;38955;48.916;2.336;2023-09-08T06:34:40;23.30;95.70
53073;DHT22;38955;48.916;2.336;2023-09-08T06:36:49;23.30;95.60
53073;DHT22;38955;48.916;2.336;2023-09-08T06:38:51;23.40;95.50
53073;DHT22;38955;48.916;2.336;2023-09-08T06:40:53;23.40;95.50
53073;DHT22;38955;48.916;2.336;2023-09-08T06:42:56;23.40;95.40
53073;DHT22;38955;48.916;2.336;2023-09-08T06:45:02;23.40;95.50
53073;DHT22;38955;48.916;2.336;2023-09-08T06:47:04;23.50;95.40
53073;DHT22;38955;48.916;2.336;2023-09-08T06:49:08;23.50;95.40
53073;DHT22;38955;48.916;2.336;2023-09-08T06:51:13;23.50;95.40
53073;DHT22;38955;48.916;2.336;2023-09-08T06:53:17;23.50;95.40
53073;DHT22;38955;48.916;2.336;2023-09-08T06:55:19;23.60;95.40
53073;DHT22;38955;48.916;2.336;2023-09-08T06:57:21;23.60;95.30
53073;DHT22;38955;48.916;2.336;2023-09-08T06:59:24;23.60;95.40
53073;DHT22;38955;48.916;2.336;2023-09-08T07:01:26;23.60;95.30
53073;DHT22;38955;48.916;2.336;2023-09-08T07:03:28;23.60;95.50
53073;DHT22;38955;48.916;2.336;2023-09-08T07:05:31;23.70;95.20
53073;DHT22;38955;48.916;2.336;2023-09-08T07:07:33;23.70;95.40
53073;DHT22;38955;48.916;2.336;2023-09-08T07:09:37;23.70;95.00
53073;DHT22;38955;48.916;2.336;2023-09-08T07:11:39;23.80;94.90
53073;DHT22;38955;48.916;2.336;2023-09-08T07:13:41;23.80;95.00
53073;DHT22;38955;48.916;2.336;2023-09-08T07:15:43;23.90;94.90
53073;DHT22;38955;48.916;2.336;2023-09-08T07:17:45;23.90;94.90
53073;DHT22;38955;48.916;2.336;2023-09-08T07:19:48;24.00;94.80
53073;DHT22;38955;48.916;2.336;2023-09-08T07:21:50;24.00;94.80
53073;DHT22;38955;48.916;2.336;2023-09-08T07:23:52;24.10;94.80
53073;DHT22;38955;48.916;2.336;2023-09-08T07:25:57;24.10;94.70
53073;DHT22;38955;48.916;2.336;2023-09-08T07:27:59;24.10;94.60
53073;DHT22;38955;48.916;2.336;2023-09-08T07:30:01;24.20;94.60
53073;DHT22;38955;48.916;2.336;2023-09-08T07:32:04;24.30;94.50
53073;DHT22;38955;48.916;2.336;2023-09-08T07:34:06;24.40;94.20
53073;DHT22;38955;48.916;2.336;2023-09-08T07:36:10;24.50;94.20
53073;DHT22;38955;48.916;2.336;2023-09-08T07:38:12;24.60;94.00
53073;DHT22;38955;48.916;2.336;2023-09-08T07:40:15;24.70;94.00
53073;DHT22;38955;48.916;2.336;2023-09-08T07:42:18;24.90;93.90
53073;DHT22;38955;48.916;2.336;2023-09-08T07:44:20;25.00;93.70
53073;DHT22;38955;48.916;2.336;2023-09-08T07:46:22;25.10;93.50
53073;DHT22;38955;48.916;2.336;2023-09-08T07:48:25;25.20;93.50
53073;DHT22;38955;48.916;2.336;2023-09-08T07:50:28;25.30;93.50
53073;DHT22;38955;48.916;2.336;2023-09-08T07:52:33;25.40;93.30
53073;DHT22;38955;48.916;2.336;2023-09-08T07:54:35;25.50;92.90
53073;DHT22;38955;48.916;2.336;2023-09-08T07:56:37;25.60;92.90
53073;DHT22;38955;48.916;2.336;2023-09-08T07:58:41;25.70;92.60
53073;DHT22;38955;48.916;2.336;2023-09-08T08:00:43;25.90;92.80
53073;DHT22;38955;48.916;2.336;2023-09-08T08:02:47;25.90;92.40
53073;DHT22;38955;48.916;2.336;2023-09-08T08:04:50;26.00;92.40
53073;DHT22;38955;48.916;2.336;2023-09-08T08:06:52;26.10;92.20
53073;DHT22;38955;48.916;2.336;2023-09-08T08:08:54;26.10;92.30
53073;DHT22;38955;48.916;2.336;2023-09-08T08:10:56;26.30;92.20
53073;DHT22;38955;48.916;2.336;2023-09-08T08:12:59;26.30;91.90
53073;DHT22;38955;48.916;2.336;2023-09-08T08:15:03;26.40;91.60
53073;DHT22;38955;48.916;2.336;2023-09-08T08:17:06;26.40;91.50
53073;DHT22;38955;48.916;2.336;2023-09-08T08:19:08;26.60;91.50
53073;DHT22;38955;48.916;2.336;2023-09-08T08:21:10;26.60;91.40
53073;DHT22;38955;48.916;2.336;2023-09-08T08:23:12;26.70;91.20
53073;DHT22;38955;48.916;2.336;2023-09-08T08:25:14;26.70;91.20
53073;DHT22;38955;48.916;2.336;2023-09-08T08:27:17;26.90;91.30
53073;DHT22;38955;48.916;2.336;2023-09-08T08:29:20;26.90;91.40
53073;DHT22;38955;48.916;2.336;2023-09-08T08:31:23;27.00;91.20
53073;DHT22;38955;48.916;2.336;2023-09-08T08:33:26;27.10;91.10
53073;DHT22;38955;48.916;2.336;2023-09-08T08:35:28;27.20;91.10
53073;DHT22;38955;48.916;2.336;2023-09-08T08:37:30;27.20;90.50
53073;DHT22;38955;48.916;2.336;2023-09-08T08:39:32;27.30;90.50
53073;DHT22;38955;48.916;2.336;2023-09-08T08:41:34;27.40;90.50
53073;DHT22;38955;48.916;2.336;2023-09-08T08:43:40;27.50;90.40
53073;DHT22;38955;48.916;2.336;2023-09-08T08:45:44;27.60;89.60
53073;DHT22;38955;48.916;2.336;2023-09-08T08:47:50;27.70;88.80
53073;DHT22;38955;48.916;2.336;2023-09-08T08:49:53;27.80;88.20
53073;DHT22;38955;48.916;2.336;2023-09-08T08:51:56;27.80;88.60
53073;DHT22;38955;48.916;2.336;2023-09-08T08:54:00;27.90;88.60
53073;DHT22;38955;48.916;2.336;2023-09-08T08:56:07;28.00;87.80
53073;DHT22;38955;48.916;2.336;2023-09-08T08:58:10;28.00;88.00
53073;DHT22;38955;48.916;2.336;2023-09-08T09:00:13;28.10;88.50
53073;DHT22;38955;48.916;2.336;2023-09-08T09:02:21;28.20;87.40
53073;DHT22;38955;48.916;2.336;2023-09-08T09:04:25;28.20;86.90
53073;DHT22;38955;48.916;2.336;2023-09-08T09:06:28;28.30;86.70
53073;DHT22;38955;48.916;2.336;2023-09-08T09:08:31;28.40;86.60
53073;DHT22;38955;48.916;2.336;2023-09-08T09:10:34;28.40;86.40
53073;DHT22;38955;48.916;2.336;2023-09-08T09:12:36;28.50;86.10
53073;DHT22;38955;48.916;2.336;2023-09-08T09:14:45;28.50;86.80
53073;DHT22;38955;48.916;2.336;2023-09-08T09:16:48;28.60;86.60
53073;DHT22;38955;48.916;2.336;2023-09-08T09:18:54;28.60;86.10
53073;DHT22;38955;48.916;2.336;2023-09-08T09:21:00;28.70;86.30
53073;DHT22;38955;48.916;2.336;2023-09-08T09:23:03;28.70;86.10
53073;DHT22;38955;48.916;2.336;2023-09-08T09:25:06;28.80;85.90
53073;DHT22;38955;48.916;2.336;2023-09-08T09:27:10;28.80;85.90
53073;DHT22;38955;48.916;2.336;2023-09-08T09:29:13;28.90;86.00
53073;DHT22;38955;48.916;2.336;2023-09-08T09:31:15;28.90;85.80
53073;DHT22;38955;48.916;2.336;2023-09-08T09:33:18;28.90;85.80
53073;DHT22;38955;48.916;2.336;2023-09-08T09:35:39;29.00;85.80
53073;DHT22;38955;48.916;2.336;2023-09-08T09:37:43;29.00;84.40
53073;DHT22;38955;48.916;2.336;2023-09-08T09:39:48;29.10;85.60
53073;DHT22;38955;48.916;2.336;2023-09-08T09:41:53;29.10;85.20
53073;DHT22;38955;48.916;2.336;2023-09-08T09:43:56;29.20;85.50
53073;DHT22;38955;48.916;2.336;2023-09-08T09:45:58;29.30;85.00
53073;DHT22;38955;48.916;2.336;2023-09-08T09:48:05;29.30;84.40
53073;DHT22;38955;48.916;2.336;2023-09-08T09:50:08;29.40;88.90
53073;DHT22;38955;48.916;2.336;2023-09-08T09:52:12;29.40;92.10
53073;DHT22;38955;48.916;2.336;2023-09-08T09:54:18;29.40;92.70
53073;DHT22;38955;48.916;2.336;2023-09-08T09:56:22;29.20;92.40
53073;DHT22;38955;48.916;2.336;2023-09-08T09:58:26;29.00;91.00
53073;DHT22;38955;48.916;2.336;2023-09-08T10:00:28;28.90;92.60
53073;DHT22;38955;48.916;2.336;2023-09-08T10:02:30;28.80;91.90
53073;DHT22;38955;48.916;2.336;2023-09-08T10:04:33;28.90;92.00
53073;DHT22;38955;48.916;2.336;2023-09-08T10:06:37;29.00;90.70
53073;DHT22;38955;48.916;2.336;2023-09-08T10:08:39;29.10;90.60
53073;DHT22;38955;48.916;2.336;2023-09-08T10:10:44;29.10;90.40
53073;DHT22;38955;48.916;2.336;2023-09-08T10:12:52;29.20;89.60
53073;DHT22;38955;48.916;2.336;2023-09-08T10:14:55;29.20;88.50
53073;DHT22;38955;48.916;2.336;2023-09-08T10:17:00;29.40;88.30
53073;DHT22;38955;48.916;2.336;2023-09-08T10:19:07;29.50;88.60
53073;DHT22;38955;48.916;2.336;2023-09-08T10:21:11;29.60;86.40
53073;DHT22;38955;48.916;2.336;2023-09-08T10:23:23;29.60;88.20
53073;DHT22;38955;48.916;2.336;2023-09-08T10:25:31;29.60;86.60
53073;DHT22;38955;48.916;2.336;2023-09-08T10:27:38;29.70;86.30
53073;DHT22;38955;48.916;2.336;2023-09-08T10:29:40;29.80;87.60
53073;DHT22;38955;48.916;2.336;2023-09-08T10:31:44;29.90;86.20
53073;DHT22;38955;48.916;2.336;2023-09-08T10:33:46;30.00;85.70
53073;DHT22;38955;48.916;2.336;2023-09-08T10:35:49;30.00;85.80
53073;DHT22;38955;48.916;2.336;2023-09-08T10:37:51;30.10;85.80
53073;DHT22;38955;48.916;2.336;2023-09-08T10:39:56;30.00;85.20
53073;DHT22;38955;48.916;2.336;2023-09-08T10:42:20;30.20;85.10
53073;DHT22;38955;48.916;2.336;2023-09-08T10:44:24;30.30;82.90
53073;DHT22;38955;48.916;2.336;2023-09-08T10:46:27;30.40;84.10
53073;DHT22;38955;48.916;2.336;2023-09-08T10:48:40;30.50;83.70
53073;DHT22;38955;48.916;2.336;2023-09-08T10:50:43;30.50;83.50
53073;DHT22;38955;48.916;2.336;2023-09-08T10:53:04;30.60;83.60
53073;DHT22;38955;48.916;2.336;2023-09-08T10:55:07;30.70;82.40
53073;DHT22;38955;48.916;2.336;2023-09-08T10:57:13;30.80;81.70
53073;DHT22;38955;48.916;2.336;2023-09-08T10:59:16;30.90;82.10
53073;DHT22;38955;48.916;2.336;2023-09-08T11:01:21;30.90;81.90
53073;DHT22;38955;48.916;2.336;2023-09-08T11:03:44;31.00;80.70
53073;DHT22;38955;48.916;2.336;2023-09-08T11:05:47;31.00;81.30
53073;DHT22;38955;48.916;2.336;2023-09-08T11:07:50;31.00;81.20
53073;DHT22;38955;48.916;2.336;2023-09-08T11:09:54;31.00;82.00
53073;DHT22;38955;48.916;2.336;2023-09-08T11:11:56;31.10;82.10
53073;DHT22;38955;48.916;2.336;2023-09-08T11:14:07;31.20;81.70
53073;DHT22;38955;48.916;2.336;2023-09-08T11:16:09;31.20;81.80
53073;DHT22;38955;48.916;2.336;2023-09-08T11:18:13;31.30;80.40
53073;DHT22;38955;48.916;2.336;2023-09-08T11:20:15;31.40;81.20
53073;DHT22;38955;48.916;2.336;2023-09-08T11:22:18;31.40;80.90
53073;DHT22;38955;48.916;2.336;2023-09-08T11:24:20;31.50;80.50
53073;DHT22;38955;48.916;2.336;2023-09-08T11:26:22;31.50;80.50
53073;DHT22;38955;48.916;2.336;2023-09-08T11:28:26;31.50;80.10
53073;DHT22;38955;48.916;2.336;2023-09-08T11:30:29;31.60;78.00
53073;DHT22;38955;48.916;2.336;2023-09-08T11:32:32;31.60;77.80
53073;DHT22;38955;48.916;2.336;2023-09-08T11:34:36;31.60;77.50
53073;DHT22;38955;48.916;2.336;2023-09-08T11:36:38;31.60;78.10
53073;DHT22;38955;48.916;2.336;2023-09-08T11:38:43;31.70;77.70
53073;DHT22;38955;48.916;2.336;2023-09-08T11:40:49;31.70;77.30
53073;DHT22;38955;48.916;2.336;2023-09-08T11:42:53;31.70;77.60
53073;DHT22;38955;48.916;2.336;2023-09-08T11:44:57;31.80;76.10
53073;DHT22;38955;48.916;2.336;2023-09-08T11:47:00;31.80;75.60
53073;DHT22;38955;48.916;2.336;2023-09-08T11:49:04;31.80;75.90
53073;DHT22;38955;48.916;2.336;2023-09-08T11:51:08;31.70;76.40
53073;DHT22;38955;48.916;2.336;2023-09-08T11:53:11;31.80;76.00
53073;DHT22;38955;48.916;2.336;2023-09-08T11:55:13;31.90;75.40
53073;DHT22;38955;48.916;2.336;2023-09-08T11:57:16;31.90;74.80
53073;DHT22;38955;48.916;2.336;2023-09-08T11:59:18;31.90;74.90
53073;DHT22;38955;48.916;2.336;2023-09-08T12:01:24;31.90;74.50
53073;DHT22;38955;48.916;2.336;2023-09-08T12:03:27;31.90;74.40
53073;DHT22;38955;48.916;2.336;2023-09-08T12:05:29;31.90;73.10
53073;DHT22;38955;48.916;2.336;2023-09-08T12:07:33;32.00;73.60
53073;DHT22;38955;48.916;2.336;2023-09-08T12:09:35;32.00;73.60
53073;DHT22;38955;48.916;2.336;2023-09-08T12:11:37;32.10;73.70
53073;DHT22;38955;48.916;2.336;2023-09-08T12:13:44;32.10;74.00
53073;DHT22;38955;48.916;2.336;2023-09-08T12:15:46;32.10;73.80
53073;DHT22;38955;48.916;2.336;2023-09-08T12:17:49;32.20;73.90
53073;DHT22;38955;48.916;2.336;2023-09-08T12:19:52;32.20;73.70
53073;DHT22;38955;48.916;2.336;2023-09-08T12:21:55;32.40;73.90
53073;DHT22;38955;48.916;2.336;2023-09-08T12:23:59;32.40;74.00
53073;DHT22;38955;48.916;2.336;2023-09-08T12:26:01;32.40;74.10
53073;DHT22;38955;48.916;2.336;2023-09-08T12:28:04;32.40;73.90
53073;DHT22;38955;48.916;2.336;2023-09-08T12:30:07;32.40;73.50
53073;DHT22;38955;48.916;2.336;2023-09-08T12:32:10;32.40;73.50
53073;DHT22;38955;48.916;2.336;2023-09-08T12:34:12;32.40;73.90
53073;DHT22;38955;48.916;2.336;2023-09-08T12:36:17;32.50;73.00
53073;DHT22;38955;48.916;2.336;2023-09-08T12:38:30;32.50;72.80
53073;DHT22;38955;48.916;2.336;2023-09-08T12:40:36;32.50;72.70
53073;DHT22;38955;48.916;2.336;2023-09-08T12:42:38;32.60;72.90
53073;DHT22;38955;48.916;2.336;2023-09-08T12:44:47;32.70;72.50
53073;DHT22;38955;48.916;2.336;2023-09-08T12:46:50;32.70;72.70
53073;DHT22;38955;48.916;2.336;2023-09-08T12:48:52;32.70;72.30
53073;DHT22;38955;48.916;2.336;2023-09-08T12:50:54;32.70;71.60
53073;DHT22;38955;48.916;2.336;2023-09-08T12:52:56;32.70;72.50
53073;DHT22;38955;48.916;2.336;2023-09-08T12:54:59;32.70;72.50
53073;DHT22;38955;48.916;2.336;2023-09-08T12:57:02;32.70;72.00
53073;DHT22;38955;48.916;2.336;2023-09-08T12:59:07;32.80;71.20